Open Full Screen Window  High Contrast Mode
February 13, 2016 10:37 PM EST
Weather Information
Wind Direction
  ---
Wind Speed
  00 kt (0 mph)
Wind Gust
  00 kt (0 mph)
Altimeter
30.45 in
Visibility
10 SM
Temperature
-15° C
F
Dewpoint
-19° C
-1° F
Humidity
72%
1hr Rain Fall
00.00 in.
24hr Rain Fall
00.00 in.
Sky Condition
Overcast @ 4,800 ft
Scattered @ 3,800 ft
Scattered @ 3,200 ft
VFR

METAR KIKW 140337Z AUTO 00000KT 10SM SCT032 SCT038 OVC048 M15/M19 A3045 RMK AO2 T11531187

*Background is not an actual portrayal of the airport.